Time;durP1;ratioP1;P1;durP2;ratioP2;P2;SDS_P1;SDS_P2;PMS_P1;PMS_P2;Temp;Humidity;BMP_temperature;BMP_pressure;BME280_temperature;BME280_humidity;BME280_pressure;Samples;Min_cycle;Max_cycle;Signal;HPM_P1;HPM_P2
2022/03/23 00:02:40;;;;;;;13.55;8.98;;;;;;;19.82;29.64;102869.69;16143391;19;130315;-47
2022/03/23 00:08:02;;;;;;;15.77;9.02;;;;;;;19.79;30.09;102868.19;16144204;19;129566;-48
2022/03/23 00:13:24;;;;;;;14.85;8.75;;;;;;;19.76;29.80;102868.59;16138798;19;130582;-49
2022/03/23 00:18:46;;;;;;;11.73;8.57;;;;;;;19.74;29.84;102864.31;16139636;19;130372;-44
2022/03/23 00:24:07;;;;;;;12.05;8.60;;;;;;;19.71;29.59;102867.50;16136521;19;129832;-44
2022/03/23 00:29:29;;;;;;;14.23;8.75;;;;;;;19.67;29.69;102862.38;16138943;19;129505;-45
2022/03/23 00:34:51;;;;;;;12.80;8.77;;;;;;;19.64;29.86;102851.69;16135405;19;128996;-46
2022/03/23 00:40:13;;;;;;;12.98;8.68;;;;;;;19.62;29.46;102862.13;16141264;19;128948;-47
2022/03/23 00:45:34;;;;;;;12.55;8.88;;;;;;;19.60;29.86;102863.41;16138209;19;130220;-48
2022/03/23 00:50:56;;;;;;;13.25;9.05;;;;;;;19.55;29.64;102858.47;16139551;19;130224;-46
2022/03/23 00:56:18;;;;;;;12.15;8.93;;;;;;;19.53;29.61;102850.34;16139301;19;131947;-46
2022/03/23 01:01:40;;;;;;;13.27;8.68;;;;;;;19.50;29.66;102850.78;16138066;19;129404;-44
2022/03/23 01:07:03;;;;;;;15.63;9.05;;;;;;;19.48;29.72;102849.25;16138882;19;129826;-47
2022/03/23 01:12:24;;;;;;;11.30;8.77;;;;;;;19.47;29.65;102850.31;16137263;19;129527;-48
2022/03/23 01:17:46;;;;;;;11.60;7.65;;;;;;;19.45;29.57;102855.19;16139868;19;129357;-49
2022/03/23 01:23:09;;;;;;;11.10;7.80;;;;;;;19.44;29.90;102853.50;16137573;19;129348;-47
2022/03/23 01:28:31;;;;;;;12.07;7.78;;;;;;;19.41;29.84;102854.75;16138529;19;130295;-47
2022/03/23 01:33:59;;;;;;;9.65;7.38;;;;;;;19.40;30.06;102863.28;16136170;19;129039;-46
2022/03/23 01:39:21;;;;;;;9.82;8.20;;;;;;;19.37;30.11;102859.88;16140107;19;129782;-49
2022/03/23 01:44:42;;;;;;;10.85;8.10;;;;;;;19.35;30.17;102856.44;16132255;19;129291;-48
2022/03/23 01:50:06;;;;;;;10.63;7.50;;;;;;;19.34;30.09;102856.66;16135342;19;129779;-44
2022/03/23 01:55:28;;;;;;;8.93;7.10;;;;;;;19.32;30.16;102848.50;16127974;19;130824;-44
2022/03/23 02:00:50;;;;;;;8.50;6.90;;;;;;;19.29;30.03;102850.84;16135299;19;129964;-46
2022/03/23 02:06:12;;;;;;;11.32;7.22;;;;;;;19.27;30.46;102845.50;16134953;19;129544;-47
2022/03/23 02:11:34;;;;;;;12.18;7.30;;;;;;;19.26;29.96;102846.56;16135477;19;129614;-44
2022/03/23 02:17:00;;;;;;;9.05;6.70;;;;;;;19.24;30.27;102842.28;16135539;19;129735;-46
2022/03/23 02:22:21;;;;;;;8.70;7.00;;;;;;;19.22;30.29;102846.13;16132860;19;129836;-44
2022/03/23 02:27:43;;;;;;;11.95;6.80;;;;;;;19.19;30.23;102840.94;16136486;19;129869;-49
2022/03/23 02:33:05;;;;;;;10.15;7.47;;;;;;;19.19;30.35;102845.66;16131107;19;129612;-44
2022/03/23 02:38:29;;;;;;;8.70;6.78;;;;;;;19.17;29.98;102842.22;16135638;19;129034;-47
2022/03/23 02:43:51;;;;;;;10.43;7.78;;;;;;;19.16;29.98;102843.25;16134046;19;129500;-44
2022/03/23 02:49:16;;;;;;;8.48;7.03;;;;;;;19.13;29.94;102840.88;16133698;19;130483;-50
2022/03/23 03:06:37;;;;;;;8.40;7.40;;;;;;;19.06;30.02;102843.63;16134537;19;130383;-47
2022/03/23 03:11:59;;;;;;;11.43;8.05;;;;;;;19.05;30.41;102851.09;16129439;19;129773;-44
2022/03/23 03:17:20;;;;;;;11.48;8.20;;;;;;;19.02;30.00;102851.50;16133461;19;129089;-47
2022/03/23 03:22:45;;;;;;;9.80;7.43;;;;;;;19.01;30.05;102851.72;16128367;19;130517;-47
2022/03/23 03:28:06;;;;;;;8.93;7.68;;;;;;;18.99;30.36;102854.66;16132342;19;129939;-45
2022/03/23 03:33:28;;;;;;;10.85;7.78;;;;;;;18.99;30.00;102860.22;16127242;19;130035;-51
2022/03/23 03:38:50;;;;;;;10.27;7.53;;;;;;;18.98;30.30;102852.09;16131404;19;129368;-46
2022/03/23 03:44:12;;;;;;;11.95;7.72;;;;;;;18.94;30.14;102859.97;16125198;19;129881;-45
2022/03/23 03:49:34;;;;;;;9.88;8.07;;;;;;;18.94;30.08;102861.88;16119123;19;129851;-45
2022/03/23 03:54:56;;;;;;;8.50;6.97;;;;;;;18.93;30.10;102866.56;16121295;19;129118;-48
2022/03/23 04:00:17;;;;;;;9.38;7.97;;;;;;;18.91;29.89;102865.91;16123502;19;130683;-49
2022/03/23 04:05:39;;;;;;;12.27;7.70;;;;;;;18.90;30.18;102861.44;16128539;19;129432;-45
2022/03/23 04:11:01;;;;;;;10.93;8.07;;;;;;;18.87;30.03;102871.00;16141165;19;129626;-49
2022/03/23 04:16:23;;;;;;;9.73;7.47;;;;;;;18.86;29.89;102876.75;16146382;19;129443;-46
2022/03/23 04:21:45;;;;;;;10.40;7.95;;;;;;;18.83;30.05;102871.63;16146140;19;129477;-45
2022/03/23 04:27:07;;;;;;;9.75;7.45;;;;;;;18.81;30.17;102873.72;16143585;19;129079;-45
2022/03/23 04:32:29;;;;;;;12.43;7.75;;;;;;;18.81;30.04;102879.28;16143280;19;129050;-45
2022/03/23 04:37:54;;;;;;;9.80;7.77;;;;;;;18.79;29.84;102885.00;16144354;19;129380;-45
2022/03/23 04:43:16;;;;;;;9.32;7.57;;;;;;;18.77;29.88;102895.44;16142050;19;130968;-44
2022/03/23 04:48:37;;;;;;;9.07;7.30;;;;;;;18.76;30.09;102883.50;16142895;19;129814;-45
2022/03/23 04:54:00;;;;;;;10.85;7.10;;;;;;;18.81;30.12;102888.44;16141390;19;129318;-44
2022/03/23 04:59:22;;;;;;;9.13;6.28;;;;;;;19.03;29.79;102889.28;16142748;19;130274;-49
2022/03/23 05:04:45;;;;;;;7.95;6.47;;;;;;;19.52;29.37;102886.66;16143731;19;130440;-50
2022/03/23 05:10:08;;;;;;;9.05;6.40;;;;;;;20.17;29.04;102894.66;16142511;19;129075;-46
2022/03/23 05:15:30;;;;;;;8.23;6.45;;;;;;;20.58;28.76;102893.66;16137493;19;129691;-50
2022/03/23 05:20:52;;;;;;;9.68;6.20;;;;;;;20.77;28.24;102893.06;16140533;19;128920;-45
2022/03/23 05:26:14;;;;;;;6.80;5.75;;;;;;;20.80;28.34;102887.94;16141721;19;132732;-49
2022/03/23 05:31:37;;;;;;;8.93;6.40;;;;;;;20.77;28.42;102890.28;16140267;19;129391;-46
2022/03/23 05:36:59;;;;;;;7.97;6.00;;;;;;;20.67;27.96;102894.31;16142334;19;130876;-46
2022/03/23 05:42:21;;;;;;;7.28;5.93;;;;;;;20.57;28.52;102905.00;16140679;19;130109;-49
2022/03/23 05:47:43;;;;;;;9.23;5.70;;;;;;;20.46;28.19;102900.91;16132911;19;129480;-46
2022/03/23 05:53:07;;;;;;;6.40;5.60;;;;;;;20.34;28.51;102908.16;16138444;19;129292;-45
2022/03/23 05:58:28;;;;;;;7.28;5.97;;;;;;;20.21;28.39;102918.16;16140179;19;129567;-44
2022/03/23 06:03:51;;;;;;;7.00;6.30;;;;;;;20.10;28.84;102916.00;16138649;19;128842;-49
2022/03/23 06:09:12;;;;;;;7.40;5.95;;;;;;;20.00;29.11;102908.03;16141658;19;129305;-49
2022/03/23 06:14:34;;;;;;;8.02;6.00;;;;;;;19.89;29.29;102926.16;16135709;19;129502;-51
2022/03/23 06:19:56;;;;;;;6.80;5.35;;;;;;;19.82;29.28;102917.78;16136871;19;129831;-46
2022/03/23 06:25:18;;;;;;;9.55;6.57;;;;;;;19.80;28.79;102921.84;16129018;19;129067;-46
2022/03/23 06:30:40;;;;;;;15.35;7.00;;;;;;;19.77;29.04;102930.56;16137457;19;129521;-45
2022/03/23 06:36:02;;;;;;;13.52;8.30;;;;;;;19.76;28.48;102929.69;16130716;19;128991;-44
2022/03/23 06:41:24;;;;;;;12.00;7.80;;;;;;;19.79;28.62;102939.56;16138166;19;129507;-47
2022/03/23 06:46:46;;;;;;;11.80;8.07;;;;;;;19.83;28.40;102943.63;16128727;19;129890;-47
2022/03/23 06:52:08;;;;;;;20.77;8.45;;;;;;;19.90;28.67;102949.22;16134105;19;130785;-47
2022/03/23 06:57:30;;;;;;;14.38;7.75;;;;;;;19.97;28.27;102948.19;16135385;19;130663;-45
2022/03/23 07:02:51;;;;;;;14.23;7.50;;;;;;;20.08;28.39;102957.03;16135281;19;129365;-48
2022/03/23 07:13:54;;;;;;;12.30;8.02;;;;;;;20.23;28.38;102956.88;16126454;19;129330;-44
2022/03/23 07:19:16;;;;;;;12.73;7.88;;;;;;;20.34;28.19;102963.75;16129508;19;130926;-44
2022/03/23 07:24:38;;;;;;;11.50;8.45;;;;;;;20.43;28.27;102959.75;16126879;19;129133;-48
2022/03/23 07:30:02;;;;;;;13.63;8.50;;;;;;;20.53;27.94;102965.75;16134855;19;129424;-46
2022/03/23 07:35:24;;;;;;;14.75;8.18;;;;;;;20.60;27.77;102977.75;16129664;19;128875;-44
2022/03/23 07:40:46;;;;;;;13.75;8.23;;;;;;;20.66;28.01;103003.00;16131996;19;129174;-46
2022/03/23 07:46:08;;;;;;;12.68;8.10;;;;;;;20.68;27.93;102984.16;16141979;19;129680;-45
2022/03/23 07:51:30;;;;;;;17.13;7.90;;;;;;;20.73;27.87;102992.75;16146840;19;129836;-44
2022/03/23 07:56:52;;;;;;;16.67;7.97;;;;;;;20.78;27.93;102994.94;16143771;19;129176;-46
2022/03/23 08:02:14;;;;;;;14.75;8.13;;;;;;;20.85;28.10;102993.03;16149685;19;129307;-43
2022/03/23 08:07:36;;;;;;;12.13;7.55;;;;;;;21.23;27.93;102998.00;16145630;19;130728;-49
2022/03/23 08:13:01;;;;;;;9.13;6.88;;;;;;;23.93;25.04;102999.19;16147110;19;129471;-46
2022/03/23 08:18:23;;;;;;;13.18;7.55;;;;;;;26.34;22.56;103002.00;16143005;19;128983;-46
2022/03/23 08:23:45;;;;;;;11.57;8.20;;;;;;;25.63;22.68;103010.53;16141362;19;130348;-47
2022/03/23 08:29:08;;;;;;;11.23;7.13;;;;;;;24.17;24.12;102996.53;16145586;19;129336;-44
2022/03/23 08:34:30;;;;;;;12.88;7.25;;;;;;;23.33;24.99;103006.19;16143902;19;130461;-44
2022/03/23 08:39:52;;;;;;;13.18;7.20;;;;;;;22.73;25.90;102999.09;16145354;19;129225;-46
2022/03/23 08:45:15;;;;;;;10.30;6.95;;;;;;;22.34;26.07;103006.59;16135547;19;130967;-45
2022/03/23 08:50:37;;;;;;;10.32;6.88;;;;;;;22.04;26.72;102997.88;16143737;19;129458;-44
2022/03/23 08:55:59;;;;;;;10.38;6.57;;;;;;;21.83;26.75;103002.69;16138854;19;129204;-44
2022/03/23 09:01:21;;;;;;;15.07;6.88;;;;;;;21.69;26.95;102998.19;16140015;19;129755;-45
2022/03/23 09:06:43;;;;;;;12.45;7.63;;;;;;;21.57;27.50;103000.78;16141937;19;129153;-43
2022/03/23 09:12:05;;;;;;;11.32;7.32;;;;;;;21.44;27.34;103005.25;16142739;19;129356;-42
2022/03/23 09:17:28;;;;;;;14.32;7.20;;;;;;;21.35;27.57;103009.31;16138603;19;129366;-43
2022/03/23 09:22:49;;;;;;;9.02;6.65;;;;;;;21.25;27.93;103008.91;16140954;19;129352;-43
2022/03/23 09:28:11;;;;;;;10.00;6.70;;;;;;;21.16;28.03;103009.13;16141673;19;129456;-44
2022/03/23 09:33:33;;;;;;;9.60;6.93;;;;;;;21.08;27.78;103000.97;16141483;19;129651;-45
2022/03/23 09:38:55;;;;;;;13.35;7.35;;;;;;;21.01;27.87;103000.97;16142270;19;129462;-43
2022/03/23 09:44:17;;;;;;;10.13;6.78;;;;;;;20.96;28.41;103002.66;16138950;19;129557;-42
2022/03/23 09:49:39;;;;;;;9.48;6.75;;;;;;;20.89;28.17;102997.97;16142256;19;129310;-43
2022/03/23 09:55:01;;;;;;;8.90;7.35;;;;;;;20.84;28.44;102997.72;16139057;19;129261;-42
2022/03/23 10:00:24;;;;;;;9.77;7.60;;;;;;;20.80;28.31;103007.53;16139711;19;130177;-43
2022/03/23 10:06:04;;;;;;;8.80;6.82;;;;;;;20.75;28.76;103007.31;16138068;19;129670;-42
2022/03/23 10:11:50;;;;;;;9.07;6.70;;;;;;;20.68;28.65;103012.84;16141401;19;129605;-45
2022/03/23 10:17:29;;;;;;;9.18;6.50;;;;;;;20.64;29.22;103010.69;16133926;19;129928;-43
2022/03/23 10:22:53;;;;;;;8.27;6.18;;;;;;;20.59;29.02;103006.63;16135695;19;129453;-42
2022/03/23 10:28:16;;;;;;;9.00;6.60;;;;;;;20.53;29.42;103009.38;16137966;19;129744;-43
2022/03/23 10:33:38;;;;;;;8.65;6.90;;;;;;;20.47;29.22;103010.22;16137705;19;129549;-43
2022/03/23 10:39:03;;;;;;;14.07;7.65;;;;;;;20.44;28.77;103005.91;16134751;19;129461;-43
2022/03/23 10:44:26;;;;;;;14.40;8.87;;;;;;;20.42;28.69;103005.28;16134430;19;130180;-42
2022/03/23 10:49:48;;;;;;;11.88;8.85;;;;;;;20.39;28.48;102998.19;16137637;19;130575;-46
2022/03/23 10:55:10;;;;;;;15.65;10.05;;;;;;;20.34;28.77;102999.88;16130699;19;129323;-42
2022/03/23 11:00:35;;;;;;;15.25;10.38;;;;;;;20.28;28.73;102996.00;16135757;19;129415;-44
2022/03/23 11:05:57;;;;;;;16.25;10.82;;;;;;;20.22;28.62;103003.25;16136016;19;130305;-42
2022/03/23 11:16:59;;;;;;;19.08;15.30;;;;;;;20.12;27.42;102994.47;16133887;19;128939;-43
2022/03/23 11:22:22;;;;;;;19.63;15.73;;;;;;;20.10;27.38;102994.69;16150509;19;129333;-45
2022/03/23 11:27:44;;;;;;;22.77;17.13;;;;;;;20.09;27.08;102992.09;16149813;19;129271;-47
2022/03/23 11:33:09;;;;;;;26.80;17.20;;;;;;;20.06;26.96;102981.41;16147967;19;130460;-43
2022/03/23 11:38:33;;;;;;;24.13;17.33;;;;;;;20.03;26.40;102976.25;16144913;19;129381;-45
2022/03/23 11:43:55;;;;;;;23.13;18.48;;;;;;;20.03;26.33;102976.25;16147395;19;129669;-42
2022/03/23 11:49:19;;;;;;;22.40;17.27;;;;;;;20.03;25.71;102973.47;16151415;19;130507;-45
2022/03/23 12:00:35;;;;;;;20.73;17.20;;;;;;;20.05;25.02;102957.47;16147060;19;129086;-45
2022/03/23 12:06:09;;;;;;;24.10;18.58;;;;;;;20.05;24.44;102952.75;16146930;19;129594;-44
2022/03/23 12:11:43;;;;;;;23.45;18.27;;;;;;;20.05;24.16;102946.34;16147438;19;129114;-42
2022/03/23 12:17:14;;;;;;;26.40;18.77;;;;;;;20.04;24.30;102945.47;16142305;19;133208;-46
2022/03/23 12:22:54;;;;;;;22.85;17.77;;;;;;;20.04;23.41;102942.69;16144268;19;129716;-45
2022/03/23 12:28:31;;;;;;;20.88;18.50;;;;;;;20.04;23.09;102939.06;16143534;19;128962;-42
2022/03/23 12:34:04;;;;;;;22.45;17.92;;;;;;;20.05;23.27;102932.44;16145674;19;129537;-46
2022/03/23 12:39:46;;;;;;;23.75;18.45;;;;;;;20.05;22.83;102935.22;16144545;19;129468;-44
2022/03/23 12:45:18;;;;;;;22.83;18.58;;;;;;;20.05;22.88;102918.56;16142839;19;129999;-43
2022/03/23 13:02:19;;;;;;;24.08;19.50;;;;;;;20.07;22.40;102906.16;16145155;19;129891;-48
2022/03/23 13:07:41;;;;;;;24.33;18.20;;;;;;;20.06;22.80;102904.44;16144666;19;129592;-44
2022/03/23 13:13:07;;;;;;;23.80;18.95;;;;;;;20.06;22.45;102896.09;16138472;19;129551;-43
2022/03/23 13:18:31;;;;;;;23.65;18.65;;;;;;;20.05;22.89;102897.16;16136510;19;129017;-45
2022/03/23 13:23:56;;;;;;;23.70;17.17;;;;;;;20.04;22.95;102894.63;16139563;19;130688;-44
2022/03/23 13:29:24;;;;;;;23.13;16.60;;;;;;;20.03;23.09;102884.56;16141347;19;129831;-43
2022/03/23 13:34:53;;;;;;;20.60;15.25;;;;;;;20.02;23.43;102871.72;16132632;19;129540;-43
2022/03/23 13:46:22;;;;;;;17.50;14.68;;;;;;;20.00;23.03;102869.16;16132695;19;129660;-45
2022/03/23 13:51:46;;;;;;;19.80;14.40;;;;;;;19.98;22.87;102868.50;16142077;19;129637;-43
2022/03/23 13:57:09;;;;;;;18.00;11.90;;;;;;;19.97;23.05;102861.22;16136902;19;130171;-46
2022/03/23 14:02:31;;;;;;;16.75;12.50;;;;;;;19.96;23.08;102849.22;16140240;19;128949;-43
2022/03/23 14:08:13;;;;;;;18.88;12.05;;;;;;;19.97;23.01;102859.28;16137950;19;129173;-46
2022/03/23 14:13:36;;;;;;;21.23;12.63;;;;;;;20.00;22.75;102855.25;16132137;19;129428;-45
2022/03/23 14:18:59;;;;;;;17.15;11.65;;;;;;;20.03;22.79;102842.88;16136523;19;129873;-46
2022/03/23 14:24:21;;;;;;;17.48;12.77;;;;;;;20.04;22.76;102845.44;16134075;19;129498;-46
2022/03/23 14:29:58;;;;;;;21.58;13.65;;;;;;;20.06;22.85;102839.69;16137475;19;129565;-46
2022/03/23 14:35:24;;;;;;;19.95;13.48;;;;;;;20.07;23.01;102838.59;16134106;19;130258;-45
2022/03/23 14:40:47;;;;;;;21.05;13.13;;;;;;;20.07;22.96;102833.91;16136827;19;129547;-44
2022/03/23 14:46:26;;;;;;;19.02;13.25;;;;;;;20.04;23.11;102822.38;16129525;19;130546;-48
2022/03/23 14:51:51;;;;;;;25.70;14.77;;;;;;;20.01;23.01;102822.78;16130802;19;129689;-46
2022/03/23 14:57:13;;;;;;;25.08;15.88;;;;;;;19.99;22.70;102821.06;16133116;19;129834;-47
2022/03/23 15:02:36;;;;;;;28.33;15.48;;;;;;;19.99;22.71;102815.50;16137238;19;129299;-47
2022/03/23 15:13:38;;;;;;;25.85;18.40;;;;;;;19.96;22.68;102799.22;16134706;19;129394;-45
2022/03/23 15:19:06;;;;;;;24.88;17.48;;;;;;;19.95;22.51;102797.50;16123087;19;129813;-44
2022/03/23 15:24:28;;;;;;;29.05;18.75;;;;;;;19.95;22.33;102794.72;16128043;19;129618;-44
2022/03/23 15:29:50;;;;;;;27.23;19.45;;;;;;;19.94;22.28;102801.34;16129293;19;129625;-45
2022/03/23 15:35:11;;;;;;;27.70;19.55;;;;;;;19.94;22.31;102801.34;16129142;19;130652;-43
2022/03/23 15:40:33;;;;;;;25.30;18.58;;;;;;;19.94;23.00;102794.97;16133470;19;130833;-44
2022/03/23 15:45:58;;;;;;;29.92;18.20;;;;;;;19.92;22.45;102792.41;16128206;19;129728;-47
2022/03/23 15:51:20;;;;;;;34.00;19.43;;;;;;;19.90;22.91;102788.97;16132428;19;130033;-43
2022/03/23 15:56:44;;;;;;;21.50;17.33;;;;;;;19.90;22.83;102796.44;16129295;19;130134;-45
2022/03/23 16:02:07;;;;;;;30.85;17.35;;;;;;;19.87;23.20;102789.38;16127316;19;129250;-44
2022/03/23 16:07:30;;;;;;;24.13;17.35;;;;;;;19.87;23.67;102783.81;16140561;19;132475;-46
2022/03/23 16:12:52;;;;;;;24.80;16.30;;;;;;;19.86;23.50;102787.66;16142080;19;129765;-44
2022/03/23 16:18:14;;;;;;;26.63;16.48;;;;;;;19.85;23.81;102785.94;16137490;19;129284;-45
2022/03/23 16:23:35;;;;;;;22.58;14.70;;;;;;;19.88;24.09;102793.03;16139895;19;129632;-48
2022/03/23 16:28:57;;;;;;;17.60;13.88;;;;;;;19.84;24.53;102789.78;16140908;19;129505;-49
2022/03/23 16:34:19;;;;;;;24.55;14.10;;;;;;;19.81;24.54;102790.22;16144097;19;130529;-45
2022/03/23 16:39:42;;;;;;;22.60;15.25;;;;;;;19.77;24.68;102795.31;16142981;19;129548;-45
2022/03/23 16:45:04;;;;;;;23.52;15.15;;;;;;;19.74;24.98;102794.91;16138016;19;129957;-47
2022/03/23 16:50:27;;;;;;;24.90;15.68;;;;;;;19.69;24.91;102799.13;16135893;19;129291;-48
2022/03/23 16:55:49;;;;;;;25.52;14.60;;;;;;;19.68;25.31;102797.47;16138933;19;130578;-45
2022/03/23 17:01:11;;;;;;;23.38;15.00;;;;;;;19.65;25.61;102802.53;16142153;19;130398;-45
2022/03/23 17:12:27;;;;;;;25.65;14.23;;;;;;;19.58;25.31;102813.63;16133502;19;129319;-48
2022/03/23 17:17:49;;;;;;;27.10;15.10;;;;;;;19.55;25.64;102808.50;16128923;19;129257;-46
2022/03/23 17:23:11;;;;;;;29.17;14.88;;;;;;;19.52;25.38;102817.25;16127634;19;129117;-46
2022/03/23 17:28:34;;;;;;;24.50;13.73;;;;;;;19.49;25.92;102820.41;16122682;19;129866;-46
2022/03/23 17:33:56;;;;;;;25.73;14.30;;;;;;;19.52;26.35;102825.56;16126780;19;129657;-46
2022/03/23 17:39:17;;;;;;;32.03;15.40;;;;;;;19.65;26.79;102835.88;16125658;19;129726;-45
2022/03/23 17:44:41;;;;;;;27.33;14.15;;;;;;;19.86;26.87;102828.50;16129840;19;129697;-44
2022/03/23 17:50:04;;;;;;;24.25;13.70;;;;;;;20.09;26.30;102830.91;16139293;19;129446;-44
2022/03/23 17:55:25;;;;;;;24.67;14.60;;;;;;;20.24;26.66;102831.59;16132469;19;130668;-46
2022/03/23 18:00:48;;;;;;;25.35;13.68;;;;;;;20.37;26.90;102829.91;16128307;19;130099;-47
2022/03/23 18:06:11;;;;;;;23.48;12.60;;;;;;;20.49;26.80;102836.56;16132329;19;129491;-46
2022/03/23 18:11:33;;;;;;;24.75;12.63;;;;;;;20.60;27.25;102844.25;16130904;19;129336;-45
2022/03/23 18:16:56;;;;;;;25.63;12.77;;;;;;;20.69;27.21;102849.59;16132074;19;129158;-50
2022/03/23 18:22:19;;;;;;;21.15;11.40;;;;;;;20.79;27.20;102847.31;16135272;19;129692;-48
2022/03/23 18:27:42;;;;;;;26.40;12.00;;;;;;;20.87;27.42;102852.63;16120078;19;130722;-50
2022/03/23 18:33:03;;;;;;;17.77;10.90;;;;;;;20.94;27.51;102858.19;16129627;19;129328;-49
2022/03/23 18:38:25;;;;;;;31.17;11.13;;;;;;;21.01;27.97;102856.25;16130325;19;129529;-49
2022/03/23 18:43:49;;;;;;;27.48;10.02;;;;;;;21.06;27.52;102862.03;16125484;19;129343;-46
2022/03/23 18:49:11;;;;;;;34.53;11.82;;;;;;;21.08;27.71;102861.81;16127595;19;130016;-46
2022/03/23 18:54:36;;;;;;;36.33;10.60;;;;;;;21.16;27.55;102869.97;16122368;19;129332;-48
2022/03/23 18:59:58;;;;;;;23.30;8.65;;;;;;;21.31;27.54;102874.41;16124831;19;129197;-49
2022/03/23 19:05:20;;;;;;;21.50;9.20;;;;;;;21.43;27.04;102875.44;16135062;19;129296;-47
2022/03/23 19:10:42;;;;;;;20.52;8.50;;;;;;;21.49;27.12;102873.75;16133166;19;129465;-49
2022/03/23 19:16:05;;;;;;;17.75;8.82;;;;;;;21.48;27.31;102881.22;16132870;19;129812;-46
2022/03/23 19:21:27;;;;;;;20.33;9.20;;;;;;;21.44;26.97;102882.72;16134952;19;129586;-52
2022/03/23 19:26:49;;;;;;;18.00;8.20;;;;;;;21.36;27.45;102881.03;16130981;19;129877;-46
2022/03/23 19:32:11;;;;;;;15.80;8.77;;;;;;;21.27;27.21;102879.56;16132541;19;129125;-47
2022/03/23 19:37:34;;;;;;;17.95;8.43;;;;;;;21.20;27.63;102887.06;16134858;19;129320;-49
2022/03/23 19:42:56;;;;;;;14.13;8.20;;;;;;;21.11;27.48;102880.03;16147102;19;129852;-47
2022/03/23 19:48:18;;;;;;;18.27;8.32;;;;;;;21.04;27.80;102877.25;16148554;19;129506;-48
2022/03/23 19:53:40;;;;;;;20.02;8.75;;;;;;;20.98;27.56;102894.78;16145686;19;129331;-47
2022/03/23 19:59:02;;;;;;;17.40;8.27;;;;;;;20.89;27.65;102895.00;16142918;19;129457;-48
2022/03/23 20:04:24;;;;;;;15.52;8.15;;;;;;;20.84;27.89;102892.00;16139270;19;129298;-47
2022/03/23 20:09:46;;;;;;;17.70;7.88;;;;;;;20.86;28.29;102883.47;16142281;19;129573;-50
2022/03/23 20:15:08;;;;;;;19.55;7.80;;;;;;;21.04;27.90;102891.16;16144014;19;129730;-48
2022/03/23 20:20:32;;;;;;;16.45;7.13;;;;;;;21.32;28.07;102895.59;16140194;19;130211;-47
2022/03/23 20:25:54;;;;;;;17.30;7.38;;;;;;;21.71;27.62;102893.81;16140188;19;129875;-46
2022/03/23 20:31:17;;;;;;;13.30;6.85;;;;;;;22.07;27.84;102897.97;16141335;19;129135;-45
2022/03/23 20:36:39;;;;;;;13.88;6.65;;;;;;;22.41;27.58;102898.66;16140807;19;129211;-47
2022/03/23 20:42:01;;;;;;;15.15;5.88;;;;;;;22.64;27.31;102891.66;16137585;19;129394;-44
2022/03/23 20:47:23;;;;;;;12.50;6.13;;;;;;;22.72;27.10;102883.00;16136106;19;130734;-45
2022/03/23 20:52:45;;;;;;;12.85;6.07;;;;;;;22.69;27.41;102891.81;16139843;19;129387;-46
2022/03/23 20:58:07;;;;;;;14.88;6.38;;;;;;;22.58;27.39;102886.97;16134555;19;130334;-46
2022/03/23 21:03:29;;;;;;;12.02;7.20;;;;;;;22.41;27.39;102895.84;16139744;19;131093;-48
2022/03/23 21:08:51;;;;;;;15.05;6.85;;;;;;;22.21;27.24;102896.00;16138878;19;129343;-47
2022/03/23 21:14:12;;;;;;;14.77;6.45;;;;;;;22.05;27.79;102893.69;16140327;19;129296;-47
2022/03/23 21:19:34;;;;;;;17.42;7.00;;;;;;;21.87;27.87;102895.25;16137109;19;129360;-45
2022/03/23 21:24:57;;;;;;;11.13;5.88;;;;;;;21.72;27.96;102894.69;16136889;19;129359;-45
2022/03/23 21:30:18;;;;;;;14.10;6.13;;;;;;;21.57;28.08;102883.78;16138713;19;130649;-45
2022/03/23 21:35:40;;;;;;;11.40;6.38;;;;;;;21.42;27.93;102890.44;16139857;19;130392;-46
2022/03/23 21:41:03;;;;;;;12.25;5.72;;;;;;;21.31;28.07;102905.03;16135899;19;129865;-46
2022/03/23 21:46:24;;;;;;;11.45;6.55;;;;;;;21.18;28.50;102903.13;16135477;19;129159;-46
2022/03/23 21:51:46;;;;;;;15.20;7.38;;;;;;;21.09;28.40;102896.91;16138448;19;129592;-46
2022/03/23 21:57:08;;;;;;;14.48;7.07;;;;;;;20.99;28.80;102902.91;16137846;19;130337;-48
2022/03/23 22:02:30;;;;;;;12.02;6.78;;;;;;;20.89;28.64;102896.94;16134299;19;130424;-48
2022/03/23 22:07:52;;;;;;;11.13;6.90;;;;;;;20.82;28.56;102898.88;16137332;19;129459;-47
2022/03/23 22:13:14;;;;;;;12.27;6.53;;;;;;;20.72;28.46;102897.34;16139685;19;131470;-45
2022/03/23 22:18:37;;;;;;;11.43;6.78;;;;;;;20.67;28.55;102905.44;16134061;19;129967;-46
2022/03/23 22:23:59;;;;;;;11.40;7.15;;;;;;;20.60;28.95;102905.44;16134112;19;129523;-47
2022/03/23 22:29:21;;;;;;;13.88;7.13;;;;;;;20.55;28.56;102901.56;16135290;19;129847;-45
2022/03/23 22:34:43;;;;;;;10.63;7.22;;;;;;;20.50;29.13;102905.00;16138811;19;128981;-51
2022/03/23 22:40:09;;;;;;;11.18;6.97;;;;;;;20.44;28.81;102894.72;16132152;19;130153;-44
2022/03/23 22:45:32;;;;;;;9.85;6.20;;;;;;;20.40;28.67;102899.00;16130561;19;130716;-44
2022/03/23 22:50:53;;;;;;;11.50;7.07;;;;;;;20.36;28.82;102894.91;16131658;19;129335;-44
2022/03/23 22:56:15;;;;;;;12.02;6.90;;;;;;;20.30;29.00;102893.84;16134003;19;130258;-44
2022/03/23 23:01:37;;;;;;;11.32;6.47;;;;;;;20.24;28.92;102889.97;16133780;19;128919;-45
2022/03/23 23:07:11;;;;;;;13.07;7.15;;;;;;;20.20;29.08;102888.66;16134723;19;130543;-44
2022/03/23 23:12:33;;;;;;;11.60;7.18;;;;;;;20.16;28.92;102898.50;16131712;19;128943;-47
2022/03/23 23:17:55;;;;;;;10.60;7.13;;;;;;;20.12;29.33;102891.63;16146736;19;129843;-45
2022/03/23 23:23:17;;;;;;;11.73;7.25;;;;;;;20.09;29.37;102886.50;16149349;19;132313;-47
2022/03/23 23:28:45;;;;;;;11.38;6.80;;;;;;;20.05;29.07;102883.28;16147553;19;132947;-48
2022/03/23 23:34:08;;;;;;;11.40;7.07;;;;;;;20.03;29.46;102876.22;16148517;19;129055;-45
2022/03/23 23:39:30;;;;;;;10.27;6.90;;;;;;;19.99;29.29;102881.31;16142204;19;129495;-47
2022/03/23 23:44:51;;;;;;;11.45;7.50;;;;;;;19.95;29.41;102875.28;16143427;19;129247;-44
2022/03/23 23:50:14;;;;;;;10.85;8.43;;;;;;;19.92;28.88;102875.75;16143838;19;131523;-49
2022/03/23 23:55:36;;;;;;;9.82;6.75;;;;;;;19.88;29.29;102873.59;16140308;19;130921;-45
